sensor_id;sensor_type;location;lat;lon;timestamp;pressure;altitude;pressure_sealevel;temperature;humidity
13594;BME280;6449;47.666;9.160;2022-12-18T00:06:11;98006.38;;;-2.32;100.00
13594;BME280;6449;47.666;9.160;2022-12-18T00:11:07;98013.94;;;-2.15;100.00
13594;BME280;6449;47.666;9.160;2022-12-18T00:16:03;98007.13;;;-2.18;100.00
13594;BME280;6449;47.666;9.160;2022-12-18T00:20:59;98007.91;;;-2.06;100.00
13594;BME280;6449;47.666;9.160;2022-12-18T00:25:58;98017.34;;;-2.12;100.00
13594;BME280;6449;47.666;9.160;2022-12-18T00:31:00;98007.09;;;-2.12;100.00
13594;BME280;6449;47.666;9.160;2022-12-18T00:35:54;98024.19;;;-2.09;100.00
13594;BME280;6449;47.666;9.160;2022-12-18T00:47:20;98037.06;;;-2.15;100.00
13594;BME280;6449;47.666;9.160;2022-12-18T00:52:13;98031.03;;;-2.06;100.00
13594;BME280;6449;47.666;9.160;2022-12-18T00:57:21;98019.84;;;-2.01;100.00
13594;BME280;6449;47.666;9.160;2022-12-18T01:02:25;98032.78;;;-2.12;100.00
13594;BME280;6449;47.666;9.160;2022-12-18T01:07:19;98038.63;;;-1.94;100.00
13594;BME280;6449;47.666;9.160;2022-12-18T01:12:13;98067.03;;;-2.14;100.00
13594;BME280;6449;47.666;9.160;2022-12-18T01:17:35;98061.81;;;-2.05;100.00
13594;BME280;6449;47.666;9.160;2022-12-18T01:22:34;98057.47;;;-1.94;100.00
13594;BME280;6449;47.666;9.160;2022-12-18T01:27:27;98066.16;;;-2.15;100.00
13594;BME280;6449;47.666;9.160;2022-12-18T01:32:23;98070.47;;;-2.15;100.00
13594;BME280;6449;47.666;9.160;2022-12-18T01:37:31;98074.78;;;-2.22;100.00
13594;BME280;6449;47.666;9.160;2022-12-18T01:42:25;98073.13;;;-2.29;100.00
13594;BME280;6449;47.666;9.160;2022-12-18T01:47:24;98072.16;;;-2.13;100.00
13594;BME280;6449;47.666;9.160;2022-12-18T01:52:20;98062.56;;;-1.92;100.00
13594;BME280;6449;47.666;9.160;2022-12-18T01:57:16;98064.22;;;-1.82;100.00
13594;BME280;6449;47.666;9.160;2022-12-18T02:02:11;98074.53;;;-1.85;100.00
13594;BME280;6449;47.666;9.160;2022-12-18T02:07:13;98081.47;;;-1.96;100.00
13594;BME280;6449;47.666;9.160;2022-12-18T02:12:18;98085.66;;;-1.83;100.00
13594;BME280;6449;47.666;9.160;2022-12-18T02:17:18;98077.03;;;-1.74;100.00
13594;BME280;6449;47.666;9.160;2022-12-18T02:22:29;98074.41;;;-1.70;100.00
13594;BME280;6449;47.666;9.160;2022-12-18T02:27:30;98074.44;;;-1.73;100.00
13594;BME280;6449;47.666;9.160;2022-12-18T02:32:29;98076.97;;;-1.68;100.00
13594;BME280;6449;47.666;9.160;2022-12-18T02:37:27;98077.09;;;-1.83;100.00
13594;BME280;6449;47.666;9.160;2022-12-18T02:42:22;98071.91;;;-1.77;100.00
13594;BME280;6449;47.666;9.160;2022-12-18T02:47:21;98078.88;;;-1.92;100.00
13594;BME280;6449;47.666;9.160;2022-12-18T02:52:31;98075.44;;;-1.92;100.00
13594;BME280;6449;47.666;9.160;2022-12-18T02:57:34;98081.44;;;-1.90;100.00
13594;BME280;6449;47.666;9.160;2022-12-18T03:02:39;98083.09;;;-1.85;100.00
13594;BME280;6449;47.666;9.160;2022-12-18T03:07:42;98095.91;;;-1.80;100.00
13594;BME280;6449;47.666;9.160;2022-12-18T03:12:43;98093.47;;;-1.98;100.00
13594;BME280;6449;47.666;9.160;2022-12-18T03:17:44;98095.16;;;-1.91;100.00
13594;BME280;6449;47.666;9.160;2022-12-18T03:22:40;98089.16;;;-1.98;100.00
13594;BME280;6449;47.666;9.160;2022-12-18T03:27:42;98091.75;;;-1.96;100.00
13594;BME280;6449;47.666;9.160;2022-12-18T03:32:44;98084.03;;;-1.96;100.00
13594;BME280;6449;47.666;9.160;2022-12-18T03:37:39;98077.09;;;-1.85;100.00
13594;BME280;6449;47.666;9.160;2022-12-18T03:42:45;98079.47;;;-1.61;100.00
13594;BME280;6449;47.666;9.160;2022-12-18T03:47:55;98091.56;;;-1.73;100.00
13594;BME280;6449;47.666;9.160;2022-12-18T03:52:57;98095.78;;;-1.63;100.00
13594;BME280;6449;47.666;9.160;2022-12-18T03:57:53;98112.22;;;-1.87;100.00
13594;BME280;6449;47.666;9.160;2022-12-18T04:02:52;98111.47;;;-1.97;100.00
13594;BME280;6449;47.666;9.160;2022-12-18T04:07:49;98106.16;;;-1.77;100.00
13594;BME280;6449;47.666;9.160;2022-12-18T04:12:44;98118.28;;;-1.96;100.00
13594;BME280;6449;47.666;9.160;2022-12-18T04:17:38;98138.91;;;-2.02;100.00
13594;BME280;6449;47.666;9.160;2022-12-18T04:22:36;98130.28;;;-1.95;100.00
13594;BME280;6449;47.666;9.160;2022-12-18T04:27:30;98126.78;;;-1.85;100.00
13594;BME280;6449;47.666;9.160;2022-12-18T04:32:23;98125.03;;;-1.82;100.00
13594;BME280;6449;47.666;9.160;2022-12-18T04:37:17;98140.59;;;-2.01;100.00
13594;BME280;6449;47.666;9.160;2022-12-18T04:42:12;98151.59;;;-1.79;100.00
13594;BME280;6449;47.666;9.160;2022-12-18T04:47:05;98142.19;;;-1.83;100.00
13594;BME280;6449;47.666;9.160;2022-12-18T04:51:59;98133.63;;;-1.87;100.00
13594;BME280;6449;47.666;9.160;2022-12-18T04:56:52;98131.06;;;-1.85;100.00
13594;BME280;6449;47.666;9.160;2022-12-18T05:01:47;98127.56;;;-1.75;100.00
13594;BME280;6449;47.666;9.160;2022-12-18T05:06:41;98138.72;;;-1.77;100.00
13594;BME280;6449;47.666;9.160;2022-12-18T05:11:34;98140.44;;;-1.78;100.00
13594;BME280;6449;47.666;9.160;2022-12-18T05:16:30;98153.28;;;-1.75;100.00
13594;BME280;6449;47.666;9.160;2022-12-18T05:21:25;98148.03;;;-1.63;100.00
13594;BME280;6449;47.666;9.160;2022-12-18T05:26:19;98150.59;;;-1.61;100.00
13594;BME280;6449;47.666;9.160;2022-12-18T05:31:13;98154.13;;;-1.76;100.00
13594;BME280;6449;47.666;9.160;2022-12-18T05:36:09;98168.84;;;-1.99;100.00
13594;BME280;6449;47.666;9.160;2022-12-18T05:41:05;98169.72;;;-2.00;100.00
13594;BME280;6449;47.666;9.160;2022-12-18T05:46:03;98166.16;;;-1.82;100.00
13594;BME280;6449;47.666;9.160;2022-12-18T05:51:05;98159.22;;;-1.67;100.00
13594;BME280;6449;47.666;9.160;2022-12-18T05:56:01;98164.34;;;-1.67;100.00
13594;BME280;6449;47.666;9.160;2022-12-18T06:00:56;98169.59;;;-1.80;100.00
13594;BME280;6449;47.666;9.160;2022-12-18T06:05:50;98150.66;;;-1.69;100.00
13594;BME280;6449;47.666;9.160;2022-12-18T06:10:50;98149.78;;;-1.68;100.00
13594;BME280;6449;47.666;9.160;2022-12-18T06:15:44;98147.19;;;-1.66;100.00
13594;BME280;6449;47.666;9.160;2022-12-18T06:20:39;98147.19;;;-1.63;100.00
13594;BME280;6449;47.666;9.160;2022-12-18T06:25:33;98157.50;;;-1.65;100.00
13594;BME280;6449;47.666;9.160;2022-12-18T06:30:26;98164.28;;;-1.54;100.00
13594;BME280;6449;47.666;9.160;2022-12-18T06:35:19;98170.25;;;-1.55;100.00
13594;BME280;6449;47.666;9.160;2022-12-18T06:40:15;98179.94;;;-1.91;100.00
13594;BME280;6449;47.666;9.160;2022-12-18T06:45:09;98186.75;;;-1.84;100.00
13594;BME280;6449;47.666;9.160;2022-12-18T06:50:04;98193.53;;;-1.77;100.00
13594;BME280;6449;47.666;9.160;2022-12-18T06:54:57;98201.25;;;-1.75;100.00
13594;BME280;6449;47.666;9.160;2022-12-18T06:59:52;98193.44;;;-1.62;100.00
13594;BME280;6449;47.666;9.160;2022-12-18T07:04:45;98205.41;;;-1.56;100.00
13594;BME280;6449;47.666;9.160;2022-12-18T07:09:41;98210.56;;;-1.56;100.00
13594;BME280;6449;47.666;9.160;2022-12-18T07:14:34;98211.34;;;-1.43;100.00
13594;BME280;6449;47.666;9.160;2022-12-18T07:19:29;98215.66;;;-1.51;100.00
13594;BME280;6449;47.666;9.160;2022-12-18T07:24:23;98225.97;;;-1.56;100.00
13594;BME280;6449;47.666;9.160;2022-12-18T07:29:16;98242.34;;;-1.68;100.00
13594;BME280;6449;47.666;9.160;2022-12-18T07:34:10;98247.41;;;-1.55;100.00
13594;BME280;6449;47.666;9.160;2022-12-18T07:39:05;98244.00;;;-1.58;100.00
13594;BME280;6449;47.666;9.160;2022-12-18T07:43:59;98253.38;;;-1.47;100.00
13594;BME280;6449;47.666;9.160;2022-12-18T07:48:52;98251.63;;;-1.47;100.00
13594;BME280;6449;47.666;9.160;2022-12-18T07:53:46;98240.44;;;-1.37;100.00
13594;BME280;6449;47.666;9.160;2022-12-18T07:58:48;98237.88;;;-1.41;100.00
13594;BME280;6449;47.666;9.160;2022-12-18T08:03:43;98246.50;;;-1.50;100.00
13594;BME280;6449;47.666;9.160;2022-12-18T08:08:36;98255.06;;;-1.46;100.00
13594;BME280;6449;47.666;9.160;2022-12-18T08:13:30;98268.88;;;-1.60;100.00
13594;BME280;6449;47.666;9.160;2022-12-18T08:18:25;98263.59;;;-1.38;100.00
13594;BME280;6449;47.666;9.160;2022-12-18T08:23:18;98256.75;;;-1.45;100.00
13594;BME280;6449;47.666;9.160;2022-12-18T08:28:12;98265.38;;;-1.48;100.00
13594;BME280;6449;47.666;9.160;2022-12-18T08:33:08;98262.75;;;-1.45;100.00
13594;BME280;6449;47.666;9.160;2022-12-18T08:38:02;98259.34;;;-1.44;100.00
13594;BME280;6449;47.666;9.160;2022-12-18T08:42:56;98261.06;;;-1.43;100.00
13594;BME280;6449;47.666;9.160;2022-12-18T08:48:07;98256.69;;;-1.35;100.00
13594;BME280;6449;47.666;9.160;2022-12-18T08:53:02;98273.03;;;-1.37;100.00
13594;BME280;6449;47.666;9.160;2022-12-18T08:57:56;98276.47;;;-1.41;100.00
13594;BME280;6449;47.666;9.160;2022-12-18T09:02:49;98262.59;;;-1.16;100.00
13594;BME280;6449;47.666;9.160;2022-12-18T09:07:43;98279.00;;;-1.37;100.00
13594;BME280;6449;47.666;9.160;2022-12-18T09:12:38;98265.28;;;-1.36;100.00
13594;BME280;6449;47.666;9.160;2022-12-18T09:17:32;98262.69;;;-1.31;100.00
13594;BME280;6449;47.666;9.160;2022-12-18T09:22:25;98264.44;;;-1.33;100.00
13594;BME280;6449;47.666;9.160;2022-12-18T09:27:18;98252.25;;;-1.10;100.00
13594;BME280;6449;47.666;9.160;2022-12-18T09:32:13;98243.69;;;-1.15;100.00
13594;BME280;6449;47.666;9.160;2022-12-18T09:37:13;98250.53;;;-1.11;100.00
13594;BME280;6449;47.666;9.160;2022-12-18T09:42:10;98256.50;;;-1.09;100.00
13594;BME280;6449;47.666;9.160;2022-12-18T09:47:16;98269.34;;;-1.01;100.00
13594;BME280;6449;47.666;9.160;2022-12-18T09:52:19;98261.50;;;-0.87;100.00
13594;BME280;6449;47.666;9.160;2022-12-18T09:57:15;98260.63;;;-0.86;100.00
13594;BME280;6449;47.666;9.160;2022-12-18T11:53:27;98230.56;;;-0.86;100.00
13594;BME280;6449;47.666;9.160;2022-12-18T11:58:38;98240.34;;;-1.26;100.00
13594;BME280;6449;47.666;9.160;2022-12-18T12:04:33;98214.63;;;-1.26;100.00
13594;BME280;6449;47.666;9.160;2022-12-18T12:49:58;98187.91;;;-1.10;100.00
13594;BME280;6449;47.666;9.160;2022-12-18T12:54:52;98183.53;;;-0.98;100.00
13594;BME280;6449;47.666;9.160;2022-12-18T12:59:58;98181.16;;;-1.23;100.00
13594;BME280;6449;47.666;9.160;2022-12-18T13:05:02;98182.00;;;-1.19;100.00
13594;BME280;6449;47.666;9.160;2022-12-18T13:10:27;98182.94;;;-1.29;100.00
13594;BME280;6449;47.666;9.160;2022-12-18T13:15:34;98178.50;;;-1.11;100.00
13594;BME280;6449;47.666;9.160;2022-12-18T13:21:05;98170.78;;;-1.14;100.00
13594;BME280;6449;47.666;9.160;2022-12-18T13:26:33;98164.63;;;-0.96;100.00
13594;BME280;6449;47.666;9.160;2022-12-18T13:31:59;98185.41;;;-1.19;100.00
13594;BME280;6449;47.666;9.160;2022-12-18T13:36:56;98189.00;;;-1.38;100.00
13594;BME280;6449;47.666;9.160;2022-12-18T13:42:10;98185.41;;;-1.19;100.00
13594;BME280;6449;47.666;9.160;2022-12-18T13:54:21;98183.63;;;-1.12;100.00
13594;BME280;6449;47.666;9.160;2022-12-18T13:59:19;98185.25;;;-0.99;100.00
13594;BME280;6449;47.666;9.160;2022-12-18T14:17:49;98194.69;;;-0.99;100.00
13594;BME280;6449;47.666;9.160;2022-12-18T14:22:45;98199.88;;;-1.04;100.00
13594;BME280;6449;47.666;9.160;2022-12-18T14:27:44;98193.22;;;-1.26;100.00
13594;BME280;6449;47.666;9.160;2022-12-18T14:32:37;98195.75;;;-1.22;100.00
13594;BME280;6449;47.666;9.160;2022-12-18T14:37:32;98194.97;;;-1.35;100.00
13594;BME280;6449;47.666;9.160;2022-12-18T14:42:27;98196.59;;;-1.24;100.00
13594;BME280;6449;47.666;9.160;2022-12-18T14:47:21;98193.16;;;-1.23;100.00
13594;BME280;6449;47.666;9.160;2022-12-18T14:52:23;98182.81;;;-1.16;100.00
13594;BME280;6449;47.666;9.160;2022-12-18T14:57:24;98195.75;;;-1.25;100.00
13594;BME280;6449;47.666;9.160;2022-12-18T15:02:22;98194.94;;;-1.27;100.00
13594;BME280;6449;47.666;9.160;2022-12-18T15:07:19;98193.22;;;-1.26;100.00
13594;BME280;6449;47.666;9.160;2022-12-18T15:12:34;98200.13;;;-1.33;100.00
13594;BME280;6449;47.666;9.160;2022-12-18T15:17:28;98195.69;;;-1.19;100.00
13594;BME280;6449;47.666;9.160;2022-12-18T15:22:26;98195.69;;;-1.19;100.00
13594;BME280;6449;47.666;9.160;2022-12-18T15:27:28;98199.25;;;-1.32;100.00
13594;BME280;6449;47.666;9.160;2022-12-18T15:32:23;98201.00;;;-1.40;100.00
13594;BME280;6449;47.666;9.160;2022-12-18T15:37:16;98208.00;;;-1.58;100.00
13594;BME280;6449;47.666;9.160;2022-12-18T15:42:10;98196.88;;;-1.61;100.00
13594;BME280;6449;47.666;9.160;2022-12-18T15:47:22;98180.50;;;-1.49;100.00
13594;BME280;6449;47.666;9.160;2022-12-18T15:52:16;98182.16;;;-1.38;100.00
13594;BME280;6449;47.666;9.160;2022-12-18T15:57:18;98180.44;;;-1.37;100.00
13594;BME280;6449;47.666;9.160;2022-12-18T16:02:19;98176.19;;;-1.46;100.00
13594;BME280;6449;47.666;9.160;2022-12-18T16:07:16;98179.53;;;-1.33;100.00
13594;BME280;6449;47.666;9.160;2022-12-18T16:12:19;98184.59;;;-1.22;100.00
13594;BME280;6449;47.666;9.160;2022-12-18T16:17:14;98182.00;;;-1.21;100.00
13594;BME280;6449;47.666;9.160;2022-12-18T16:22:20;98186.34;;;-1.29;100.00
13594;BME280;6449;47.666;9.160;2022-12-18T16:27:14;98182.03;;;-1.22;100.00
13594;BME280;6449;47.666;9.160;2022-12-18T16:32:14;98188.81;;;-1.15;100.00
13594;BME280;6449;47.666;9.160;2022-12-18T16:37:10;98191.31;;;-1.06;100.00
13594;BME280;6449;47.666;9.160;2022-12-18T16:42:10;98181.78;;;-0.96;100.00
13594;BME280;6449;47.666;9.160;2022-12-18T16:47:06;98193.78;;;-0.94;100.00
13594;BME280;6449;47.666;9.160;2022-12-18T16:52:02;98182.81;;;-1.14;100.00
13594;BME280;6449;47.666;9.160;2022-12-18T16:56:56;98180.97;;;-1.03;100.00
13594;BME280;6449;47.666;9.160;2022-12-18T17:01:51;98177.50;;;-0.97;100.00
13594;BME280;6449;47.666;9.160;2022-12-18T17:06:45;98174.97;;;-1.00;100.00
13594;BME280;6449;47.666;9.160;2022-12-18T17:11:43;98168.00;;;-0.92;100.00
13594;BME280;6449;47.666;9.160;2022-12-18T17:16:36;98170.72;;;-1.08;100.00
13594;BME280;6449;47.666;9.160;2022-12-18T17:21:32;98168.97;;;-0.99;100.00
13594;BME280;6449;47.666;9.160;2022-12-18T17:26:27;98161.19;;;-0.96;100.00
13594;BME280;6449;47.666;9.160;2022-12-18T18:04:13;98135.34;;;-0.84;100.00
13594;BME280;6449;47.666;9.160;2022-12-18T18:09:07;98142.34;;;-0.95;100.00
13594;BME280;6449;47.666;9.160;2022-12-18T18:14:14;98139.63;;;-0.83;100.00
13594;BME280;6449;47.666;9.160;2022-12-18T18:25:40;98139.59;;;-0.82;100.00
13594;BME280;6449;47.666;9.160;2022-12-18T18:43:11;98147.34;;;-0.86;100.00
13594;BME280;6449;47.666;9.160;2022-12-18T19:07:39;98145.44;;;-0.66;100.00
13594;BME280;6449;47.666;9.160;2022-12-18T19:19:41;98149.97;;;-0.89;100.00
13594;BME280;6449;47.666;9.160;2022-12-18T20:17:13;98103.34;;;-0.63;100.00
13594;BME280;6449;47.666;9.160;2022-12-18T20:22:07;98100.00;;;-0.68;100.00
13594;BME280;6449;47.666;9.160;2022-12-18T20:33:34;98098.31;;;-0.72;100.00
13594;BME280;6449;47.666;9.160;2022-12-18T20:38:28;98085.34;;;-0.63;100.00
13594;BME280;6449;47.666;9.160;2022-12-18T20:43:25;98093.25;;;-0.78;100.00
13594;BME280;6449;47.666;9.160;2022-12-18T20:48:19;98100.78;;;-0.65;100.00
13594;BME280;6449;47.666;9.160;2022-12-18T20:53:19;98106.78;;;-0.63;100.00
13594;BME280;6449;47.666;9.160;2022-12-18T20:58:12;98095.53;;;-0.56;100.00
13594;BME280;6449;47.666;9.160;2022-12-18T21:03:05;98090.41;;;-0.59;100.00
13594;BME280;6449;47.666;9.160;2022-12-18T21:07:59;98080.91;;;-0.52;100.00
13594;BME280;6449;47.666;9.160;2022-12-18T21:45:48;98076.81;;;-0.68;100.00
13594;BME280;6449;47.666;9.160;2022-12-18T21:50:43;98090.47;;;-0.65;100.00
13594;BME280;6449;47.666;9.160;2022-12-18T22:02:12;98086.16;;;-0.61;100.00
13594;BME280;6449;47.666;9.160;2022-12-18T22:07:07;98074.94;;;-0.56;100.00
13594;BME280;6449;47.666;9.160;2022-12-18T22:18:33;98068.03;;;-0.52;100.00
13594;BME280;6449;47.666;9.160;2022-12-18T22:23:27;98058.53;;;-0.50;100.00
13594;BME280;6449;47.666;9.160;2022-12-18T22:28:20;98069.00;;;-0.62;100.00
13594;BME280;6449;47.666;9.160;2022-12-18T22:33:28;98090.53;;;-0.68;100.00
13594;BME280;6449;47.666;9.160;2022-12-18T22:38:22;98067.22;;;-0.59;100.00
13594;BME280;6449;47.666;9.160;2022-12-18T22:43:17;98072.38;;;-0.59;100.00
13594;BME280;6449;47.666;9.160;2022-12-18T22:48:10;98066.31;;;-0.55;100.00
13594;BME280;6449;47.666;9.160;2022-12-18T22:53:04;98063.00;;;-0.64;100.00
13594;BME280;6449;47.666;9.160;2022-12-18T22:58:00;98062.06;;;-0.59;100.00
13594;BME280;6449;47.666;9.160;2022-12-18T23:02:53;98072.41;;;-0.60;100.00
13594;BME280;6449;47.666;9.160;2022-12-18T23:07:51;98064.53;;;-0.49;100.00
13594;BME280;6449;47.666;9.160;2022-12-18T23:12:45;98065.56;;;-0.61;100.00
13594;BME280;6449;47.666;9.160;2022-12-18T23:17:40;98050.09;;;-0.58;100.00
13594;BME280;6449;47.666;9.160;2022-12-18T23:22:33;98044.78;;;-0.47;100.00
13594;BME280;6449;47.666;9.160;2022-12-18T23:27:26;98052.75;;;-0.66;100.00
13594;BME280;6449;47.666;9.160;2022-12-18T23:32:19;98063.09;;;-0.70;100.00
13594;BME280;6449;47.666;9.160;2022-12-18T23:37:14;98058.78;;;-0.68;100.00
13594;BME280;6449;47.666;9.160;2022-12-18T23:42:27;98065.56;;;-0.61;100.00
